Time;durP1;ratioP1;P1;durP2;ratioP2;P2;SDS_P1;SDS_P2;PMS_P1;PMS_P2;Temp;Humidity;BMP_temperature;BMP_pressure;BME280_temperature;BME280_humidity;BME280_pressure;Samples;Min_cycle;Max_cycle;Signal;HPM_P1;HPM_P2
2021/01/27 00:00:25;;;;;;;4.57;3.40;;;2.40;99.90;;;;;;5098110;28;20200;-64
2021/01/27 00:02:51;;;;;;;4.28;2.92;;;2.40;99.90;;;;;;5092248;28;20187;-65
2021/01/27 00:05:21;;;;;;;5.90;3.22;;;2.40;99.90;;;;;;5091714;28;20192;-64
2021/01/27 00:07:46;;;;;;;1.75;0.20;;;2.40;99.90;;;;;;5092740;28;20183;-64
2021/01/27 00:10:13;;;;;;;2.43;0.67;;;2.40;99.90;;;;;;5092703;28;20204;-65
2021/01/27 00:12:39;;;;;;;1.73;0.20;;;2.40;99.90;;;;;;5092655;28;20251;-65
2021/01/27 00:15:08;;;;;;;2.67;0.83;;;2.40;99.90;;;;;;5093677;28;20289;-64
2021/01/27 00:17:33;;;;;;;1.70;0.20;;;2.40;99.90;;;;;;5090114;28;20180;-64
2021/01/27 00:19:59;;;;;;;1.70;0.30;;;2.50;99.90;;;;;;5092657;28;20774;-64
2021/01/27 00:22:24;;;;;;;2.20;0.97;;;2.60;99.90;;;;;;5093656;28;20211;-64
2021/01/27 00:24:50;;;;;;;2.67;1.13;;;2.50;99.90;;;;;;5091547;28;20229;-64
2021/01/27 00:27:15;;;;;;;1.70;0.20;;;2.50;99.90;;;;;;5093885;28;20187;-65
2021/01/27 00:29:41;;;;;;;1.97;0.70;;;2.50;99.90;;;;;;5092600;28;20215;-64
2021/01/27 00:32:07;;;;;;;4.22;2.17;;;2.50;99.90;;;;;;5088346;28;20184;-64
2021/01/27 00:34:32;;;;;;;2.10;0.97;;;2.50;99.90;;;;;;5092816;28;20225;-64
2021/01/27 00:36:58;;;;;;;5.60;1.90;;;2.50;99.90;;;;;;5092490;28;20215;-64
2021/01/27 00:39:23;;;;;;;3.80;2.20;;;2.50;99.90;;;;;;5091281;28;20216;-64
2021/01/27 00:41:49;;;;;;;1.70;0.20;;;2.40;99.90;;;;;;5093569;28;20226;-65
2021/01/27 00:44:15;;;;;;;6.60;3.53;;;2.40;99.90;;;;;;5091998;28;20503;-64
2021/01/27 00:46:40;;;;;;;1.70;0.20;;;2.30;99.90;;;;;;5092450;28;20180;-65
2021/01/27 00:49:06;;;;;;;2.20;0.70;;;2.30;99.90;;;;;;5092606;28;20204;-64
2021/01/27 00:51:32;;;;;;;1.70;0.20;;;2.40;99.90;;;;;;5091914;28;20267;-65
2021/01/27 00:53:58;;;;;;;2.00;0.70;;;2.40;99.90;;;;;;5092964;28;20611;-65
2021/01/27 00:56:23;;;;;;;5.53;2.67;;;2.30;99.90;;;;;;5092746;28;20257;-64
2021/01/27 00:58:49;;;;;;;5.00;2.43;;;2.30;99.90;;;;;;5092177;28;20204;-65
2021/01/27 01:01:15;;;;;;;1.70;0.20;;;2.30;99.90;;;;;;5074211;28;20187;-64
2021/01/27 01:03:40;;;;;;;7.77;2.00;;;2.30;99.90;;;;;;5093388;28;20183;-64
2021/01/27 01:06:06;;;;;;;1.80;0.30;;;2.40;99.90;;;;;;5090621;28;20263;-64
2021/01/27 01:08:31;;;;;;;1.70;0.20;;;2.30;99.90;;;;;;5097547;28;20218;-64
2021/01/27 01:11:00;;;;;;;1.70;0.20;;;2.30;99.90;;;;;;5092305;28;20669;-64
2021/01/27 01:13:28;;;;;;;3.38;1.65;;;2.20;99.90;;;;;;5093887;28;20210;-64
2021/01/27 01:15:54;;;;;;;1.70;0.20;;;2.20;99.90;;;;;;5101107;28;20225;-65
2021/01/27 01:18:20;;;;;;;1.80;0.30;;;2.20;99.90;;;;;;5099020;28;20184;-64
2021/01/27 01:20:47;;;;;;;1.70;0.20;;;2.30;99.90;;;;;;5099010;28;20515;-65
2021/01/27 01:23:14;;;;;;;5.57;3.10;;;2.30;99.90;;;;;;5098835;28;20192;-65
2021/01/27 01:25:40;;;;;;;3.30;1.45;;;2.30;99.90;;;;;;5096946;28;20192;-65
2021/01/27 01:28:06;;;;;;;6.03;2.87;;;2.30;99.90;;;;;;5097540;28;20235;-64
2021/01/27 01:30:35;;;;;;;2.75;1.63;;;2.30;99.90;;;;;;5093119;28;20471;-65
2021/01/27 01:33:22;;;;;;;2.47;1.42;;;2.30;99.90;;;;;;5090709;28;20195;-65
2021/01/27 01:35:49;;;;;;;2.95;1.17;;;2.30;99.90;;;;;;5092257;28;20491;-64
2021/01/27 01:38:15;;;;;;;1.70;0.30;;;2.30;99.90;;;;;;5092138;28;20184;-65
2021/01/27 01:40:43;;;;;;;1.75;0.20;;;2.30;99.90;;;;;;5089403;28;20292;-65
2021/01/27 01:43:15;;;;;;;3.60;1.45;;;2.40;99.90;;;;;;5085368;28;20188;-65
2021/01/27 01:45:45;;;;;;;1.70;0.20;;;2.40;99.90;;;;;;5093141;28;20249;-63
2021/01/27 01:48:25;;;;;;;1.90;0.68;;;2.30;99.90;;;;;;5091766;28;20241;-64
2021/01/27 01:50:58;;;;;;;1.70;0.20;;;2.40;99.90;;;;;;5070350;28;20287;-65
2021/01/27 01:53:24;;;;;;;2.17;0.40;;;2.40;99.90;;;;;;5092437;28;20259;-66
2021/01/27 01:55:52;;;;;;;3.80;1.70;;;2.40;99.90;;;;;;5091418;28;20258;-65
2021/01/27 01:58:17;;;;;;;1.88;0.50;;;2.30;99.90;;;;;;5092030;28;20252;-65
2021/01/27 02:00:43;;;;;;;1.70;0.20;;;2.40;99.90;;;;;;5093279;28;20227;-65
2021/01/27 02:03:11;;;;;;;5.33;2.20;;;2.40;99.90;;;;;;5092436;28;20188;-65
2021/01/27 02:05:37;;;;;;;1.90;0.40;;;2.40;99.90;;;;;;5092703;28;20549;-64
2021/01/27 02:08:03;;;;;;;1.70;0.20;;;2.40;99.90;;;;;;5106257;28;20184;-63
2021/01/27 02:10:29;;;;;;;3.70;2.17;;;2.40;99.90;;;;;;5111282;28;20494;-65
2021/01/27 02:13:12;;;;;;;1.70;0.20;;;2.40;99.90;;;;;;5102116;28;20198;-65
2021/01/27 02:15:46;;;;;;;1.70;0.20;;;2.30;99.90;;;;;;5111561;28;20183;-62
2021/01/27 02:18:37;;;;;;;1.73;0.20;;;2.30;99.90;;;;;;5108886;28;20184;-65
2021/01/27 02:21:45;;;;;;;6.72;3.42;;;2.40;99.90;;;;;;5103874;28;20223;-65
2021/01/27 02:24:23;;;;;;;1.70;0.20;;;2.30;99.90;;;;;;5089098;28;20239;-65
2021/01/27 02:27:20;;;;;;;1.80;0.30;;;2.40;99.90;;;;;;5089951;28;20283;-66
2021/01/27 02:30:14;;;;;;;1.90;0.52;;;2.40;99.90;;;;;;5099966;28;20203;-68
2021/01/27 02:33:29;;;;;;;1.70;0.20;;;2.50;99.90;;;;;;5104874;27;20260;-65
2021/01/27 02:36:24;;;;;;;1.80;0.30;;;2.50;99.90;;;;;;5098747;28;20275;-62
2021/01/27 02:38:56;;;;;;;2.20;0.88;;;2.50;99.90;;;;;;5112560;28;20179;-63
2021/01/27 02:41:28;;;;;;;2.50;1.30;;;2.40;99.90;;;;;;5111847;28;20184;-65
2021/01/27 02:43:57;;;;;;;2.03;0.70;;;2.40;99.90;;;;;;5096959;28;20199;-64
2021/01/27 02:46:43;;;;;;;1.75;0.30;;;2.40;99.90;;;;;;5093980;28;20204;-65
2021/01/27 02:49:33;;;;;;;2.33;0.82;;;2.40;99.90;;;;;;5089377;28;20202;-65
2021/01/27 02:52:12;;;;;;;1.70;0.20;;;2.40;99.90;;;;;;5090605;28;20191;-66
2021/01/27 02:54:43;;;;;;;1.70;0.20;;;2.40;99.90;;;;;;5085805;28;20180;-66
2021/01/27 02:57:27;;;;;;;2.58;1.23;;;2.40;99.90;;;;;;5090609;28;20203;-65
2021/01/27 03:00:04;;;;;;;1.73;0.20;;;2.40;99.90;;;;;;5096046;28;20207;-66
2021/01/27 03:02:40;;;;;;;3.15;1.67;;;2.50;99.90;;;;;;5112222;28;20171;-63
2021/01/27 03:05:14;;;;;;;1.70;0.20;;;2.40;99.90;;;;;;5113837;28;20229;-65
2021/01/27 03:07:42;;;;;;;3.85;0.75;;;2.40;99.90;;;;;;5111141;28;20179;-64
2021/01/27 03:10:18;;;;;;;1.75;0.20;;;2.40;99.90;;;;;;5100884;28;20216;-63
2021/01/27 03:12:48;;;;;;;1.70;0.20;;;2.50;99.90;;;;;;5091705;28;20175;-66
2021/01/27 03:15:15;;;;;;;1.70;0.20;;;2.50;99.90;;;;;;5090288;28;20198;-66
2021/01/27 03:17:43;;;;;;;3.33;2.80;;;2.50;99.90;;;;;;5088110;28;20176;-66
2021/01/27 03:20:23;;;;;;;3.08;1.48;;;2.40;99.90;;;;;;5089553;28;20207;-66
2021/01/27 03:22:57;;;;;;;1.70;0.20;;;2.50;99.90;;;;;;5088903;28;20179;-65
2021/01/27 03:25:28;;;;;;;1.80;0.40;;;2.40;99.90;;;;;;5088292;28;20262;-66
2021/01/27 03:28:10;;;;;;;1.70;0.20;;;2.40;99.90;;;;;;5087113;28;20182;-64
2021/01/27 03:30:36;;;;;;;2.05;0.47;;;2.40;99.90;;;;;;5088820;28;20745;-66
2021/01/27 03:33:36;;;;;;;1.70;0.20;;;2.30;99.90;;;;;;5088022;28;20535;-65
2021/01/27 03:36:05;;;;;;;1.73;0.20;;;2.40;99.90;;;;;;5085497;28;20191;-66
2021/01/27 03:38:34;;;;;;;1.80;0.30;;;2.40;99.90;;;;;;5090084;28;20180;-66
2021/01/27 03:41:09;;;;;;;1.70;0.20;;;2.40;99.90;;;;;;5089770;28;20259;-66
2021/01/27 03:44:05;;;;;;;1.70;0.20;;;2.40;99.90;;;;;;5089541;28;20278;-66
2021/01/27 03:46:39;;;;;;;1.70;0.20;;;2.40;99.90;;;;;;5090110;28;20496;-66
2021/01/27 03:49:24;;;;;;;1.70;0.20;;;2.40;99.90;;;;;;5089582;28;20207;-65
2021/01/27 03:51:59;;;;;;;1.73;0.20;;;2.50;99.90;;;;;;5083267;28;20615;-64
2021/01/27 03:54:28;;;;;;;1.70;0.20;;;2.50;99.90;;;;;;5088472;28;20187;-66
2021/01/27 03:57:14;;;;;;;1.80;0.20;;;2.50;99.90;;;;;;5090329;28;20234;-66
2021/01/27 03:59:44;;;;;;;1.77;0.28;;;2.50;99.90;;;;;;5084575;28;20249;-66
2021/01/27 04:02:16;;;;;;;1.70;0.20;;;2.50;99.90;;;;;;5089755;28;20195;-66
2021/01/27 04:04:42;;;;;;;1.73;0.30;;;2.50;99.90;;;;;;5089878;28;20184;-66
2021/01/27 04:07:07;;;;;;;2.73;0.87;;;2.50;99.90;;;;;;5087612;28;20343;-65
2021/01/27 04:09:32;;;;;;;2.37;1.13;;;2.50;99.90;;;;;;5084217;28;20201;-66
2021/01/27 04:11:58;;;;;;;1.70;0.20;;;2.50;99.90;;;;;;5089463;28;20176;-65
2021/01/27 04:14:23;;;;;;;1.87;0.47;;;2.50;99.90;;;;;;5091181;28;20646;-65
2021/01/27 04:16:49;;;;;;;1.70;0.20;;;2.50;99.90;;;;;;5092180;28;20225;-66
2021/01/27 04:19:14;;;;;;;1.80;0.37;;;2.50;99.90;;;;;;5091836;28;20663;-66
2021/01/27 04:21:40;;;;;;;1.87;0.47;;;2.50;99.90;;;;;;5093413;28;20187;-66
2021/01/27 04:24:06;;;;;;;5.53;3.43;;;2.50;99.90;;;;;;5093405;28;20221;-63
2021/01/27 04:26:31;;;;;;;1.70;0.20;;;2.50;99.90;;;;;;5092706;28;20314;-66
2021/01/27 04:28:57;;;;;;;1.70;0.20;;;2.50;99.90;;;;;;5074287;28;20238;-66
2021/01/27 04:31:22;;;;;;;1.90;0.50;;;2.50;99.90;;;;;;5093357;28;20280;-66
2021/01/27 04:33:48;;;;;;;2.20;0.90;;;2.60;99.90;;;;;;5092107;28;20191;-66
2021/01/27 04:36:14;;;;;;;2.63;0.70;;;2.60;99.90;;;;;;5093311;28;20214;-66
2021/01/27 04:38:39;;;;;;;2.00;0.50;;;2.50;99.90;;;;;;5091828;28;20542;-66
2021/01/27 04:41:05;;;;;;;2.53;0.90;;;2.50;99.90;;;;;;5091857;28;20723;-65
2021/01/27 04:43:38;;;;;;;1.80;0.30;;;2.50;99.90;;;;;;5094943;28;20184;-64
2021/01/27 04:46:29;;;;;;;1.70;0.20;;;2.50;99.90;;;;;;5092124;28;20596;-66
2021/01/27 04:49:02;;;;;;;2.03;0.52;;;2.50;99.90;;;;;;5091879;28;20199;-66
2021/01/27 04:51:51;;;;;;;5.63;2.78;;;2.50;99.90;;;;;;5091745;28;20255;-66
2021/01/27 04:54:35;;;;;;;1.88;0.52;;;2.40;99.90;;;;;;5094778;28;20176;-66
2021/01/27 04:57:17;;;;;;;2.10;0.70;;;2.40;99.90;;;;;;5092541;28;20178;-66
2021/01/27 05:00:10;;;;;;;1.70;0.20;;;2.50;99.90;;;;;;5086411;28;20288;-66
2021/01/27 05:03:20;;;;;;;2.78;1.10;;;2.50;99.90;;;;;;5084548;28;20190;-66
2021/01/27 05:05:54;;;;;;;1.70;0.20;;;2.50;99.90;;;;;;5002102;28;20291;-64
2021/01/27 05:08:28;;;;;;;4.00;2.88;;;2.50;99.90;;;;;;5084228;28;20200;-65
2021/01/27 05:10:56;;;;;;;2.08;0.77;;;2.50;99.90;;;;;;5091522;28;20207;-66
2021/01/27 05:13:36;;;;;;;2.40;0.90;;;2.60;99.90;;;;;;5091660;28;20295;-66
2021/01/27 05:16:17;;;;;;;1.70;0.25;;;2.60;99.90;;;;;;5092115;28;20219;-65
2021/01/27 05:18:43;;;;;;;1.70;0.20;;;2.60;99.90;;;;;;5084941;28;20199;-66
2021/01/27 05:21:40;;;;;;;3.23;1.40;;;2.60;99.90;;;;;;5091793;28;20272;-65
2021/01/27 05:24:07;;;;;;;1.70;0.20;;;2.50;99.90;;;;;;5092077;28;20184;-66
2021/01/27 05:26:56;;;;;;;2.47;0.40;;;2.50;99.90;;;;;;5090161;28;20192;-66
2021/01/27 05:29:40;;;;;;;1.80;0.40;;;2.60;99.90;;;;;;5089280;28;20223;-66
2021/01/27 05:32:08;;;;;;;1.90;0.40;;;2.60;99.90;;;;;;5090849;28;20202;-66
2021/01/27 05:34:50;;;;;;;1.70;0.20;;;2.60;99.90;;;;;;5091360;28;20195;-66
2021/01/27 05:37:20;;;;;;;4.85;1.33;;;2.60;99.90;;;;;;5087272;28;20262;-66
2021/01/27 05:39:48;;;;;;;2.60;1.35;;;2.60;99.90;;;;;;5088723;28;20203;-66
2021/01/27 05:42:23;;;;;;;1.70;0.20;;;2.60;99.90;;;;;;5092101;28;20655;-66
2021/01/27 05:44:51;;;;;;;2.85;0.90;;;2.70;99.90;;;;;;5074046;28;20187;-66
2021/01/27 05:47:24;;;;;;;3.35;0.88;;;2.60;99.90;;;;;;5088817;28;20259;-65
2021/01/27 05:49:50;;;;;;;1.70;0.20;;;2.70;99.90;;;;;;5093456;28;20678;-66
2021/01/27 05:52:18;;;;;;;1.70;0.20;;;2.70;99.90;;;;;;5089328;28;20203;-66
2021/01/27 05:54:44;;;;;;;1.80;0.50;;;2.70;99.90;;;;;;5091689;28;20184;-65
2021/01/27 05:57:15;;;;;;;3.30;1.38;;;2.80;99.90;;;;;;5091250;28;20187;-66
2021/01/27 05:59:41;;;;;;;5.30;1.65;;;2.70;99.90;;;;;;5091127;28;20558;-66
2021/01/27 06:02:07;;;;;;;2.00;0.57;;;2.70;99.90;;;;;;5091283;28;20180;-66
2021/01/27 06:04:34;;;;;;;1.70;0.20;;;2.60;99.90;;;;;;5092545;28;20579;-66
2021/01/27 06:07:03;;;;;;;1.73;0.30;;;2.60;99.90;;;;;;5092360;28;20176;-65
2021/01/27 06:09:41;;;;;;;1.70;0.20;;;2.60;99.90;;;;;;5090860;28;20212;-66
2021/01/27 06:12:12;;;;;;;2.97;1.20;;;2.60;99.90;;;;;;5089559;28;20546;-65
2021/01/27 06:14:38;;;;;;;2.05;0.50;;;2.50;99.90;;;;;;5089580;28;20171;-66
2021/01/27 06:17:28;;;;;;;3.95;1.38;;;2.50;99.90;;;;;;5097778;28;20265;-66
2021/01/27 06:20:15;;;;;;;2.58;1.05;;;2.40;99.90;;;;;;5096494;28;20204;-65
2021/01/27 06:22:49;;;;;;;1.70;0.20;;;2.50;99.90;;;;;;5096474;28;20188;-66
2021/01/27 06:25:41;;;;;;;1.80;0.28;;;2.50;99.90;;;;;;5105735;28;20186;-66
2021/01/27 06:28:31;;;;;;;1.90;0.70;;;2.50;99.90;;;;;;5108409;28;20208;-64
2021/01/27 06:31:25;;;;;;;1.70;0.20;;;2.40;99.90;;;;;;5093433;28;20204;-66
2021/01/27 06:34:24;;;;;;;1.70;0.20;;;2.50;99.90;;;;;;5074200;28;20192;-68
2021/01/27 06:37:08;;;;;;;1.70;0.20;;;2.50;99.90;;;;;;5089103;28;20192;-68
2021/01/27 06:40:02;;;;;;;2.17;0.40;;;2.50;99.90;;;;;;5090846;28;20678;-66
2021/01/27 06:42:30;;;;;;;1.70;0.20;;;2.50;99.90;;;;;;5090438;28;20287;-65
2021/01/27 06:45:09;;;;;;;1.70;0.20;;;2.50;99.90;;;;;;5092013;28;20580;-66
2021/01/27 06:48:13;;;;;;;1.70;0.20;;;2.50;99.90;;;;;;5089931;28;20212;-66
2021/01/27 06:50:52;;;;;;;1.70;0.20;;;2.50;99.90;;;;;;5056879;28;20677;-66
2021/01/27 06:53:41;;;;;;;2.10;0.73;;;2.50;99.90;;;;;;5090087;28;20176;-65
2021/01/27 06:56:31;;;;;;;1.70;0.20;;;2.60;99.90;;;;;;5067370;28;20528;-65
2021/01/27 06:59:29;;;;;;;1.70;0.20;;;2.60;99.90;;;;;;5085810;28;20218;-66
2021/01/27 07:02:01;;;;;;;1.70;0.20;;;2.60;99.90;;;;;;5091175;28;20607;-66
2021/01/27 07:05:02;;;;;;;1.90;0.50;;;2.60;99.90;;;;;;5090138;28;20245;-65
2021/01/27 07:08:22;;;;;;;1.70;0.20;;;2.60;99.90;;;;;;5089741;28;20704;-65
2021/01/27 07:11:02;;;;;;;1.70;0.20;;;2.60;99.90;;;;;;5024232;28;20285;-66
2021/01/27 07:13:54;;;;;;;1.70;0.20;;;2.60;99.90;;;;;;5082614;28;20271;-65
2021/01/27 07:16:41;;;;;;;1.77;0.30;;;2.70;99.90;;;;;;5090801;28;20547;-64
2021/01/27 07:19:27;;;;;;;1.70;0.20;;;2.70;99.90;;;;;;5091155;28;20292;-65
2021/01/27 07:22:00;;;;;;;1.73;0.20;;;2.70;99.90;;;;;;5091173;28;20570;-66
2021/01/27 07:25:00;;;;;;;2.63;2.35;;;2.70;99.90;;;;;;5090936;28;20542;-63
2021/01/27 07:27:28;;;;;;;1.70;0.20;;;2.70;99.90;;;;;;5072444;28;20184;-63
2021/01/27 07:30:03;;;;;;;1.75;0.30;;;2.70;99.90;;;;;;5087676;28;20273;-65
2021/01/27 07:32:38;;;;;;;1.80;0.47;;;2.60;99.90;;;;;;5097635;28;20195;-65
2021/01/27 07:35:14;;;;;;;1.70;0.20;;;2.60;99.90;;;;;;5098479;28;20653;-64
2021/01/27 07:37:42;;;;;;;1.70;0.20;;;2.60;99.90;;;;;;5082660;28;20222;-65
2021/01/27 07:40:21;;;;;;;2.65;1.30;;;2.60;99.90;;;;;;5098623;28;20263;-64
2021/01/27 07:43:02;;;;;;;1.70;0.20;;;2.60;99.90;;;;;;5106597;28;20252;-66
2021/01/27 07:45:35;;;;;;;1.73;0.20;;;2.60;99.90;;;;;;5101218;28;20233;-64
2021/01/27 07:48:25;;;;;;;1.70;0.20;;;2.50;99.90;;;;;;5093494;28;20188;-64
2021/01/27 07:51:00;;;;;;;2.90;1.23;;;2.50;99.90;;;;;;5094472;28;20211;-63
2021/01/27 07:53:37;;;;;;;3.20;1.13;;;2.40;99.90;;;;;;5095023;28;20191;-64
2021/01/27 07:56:11;;;;;;;2.97;1.20;;;2.30;99.90;;;;;;5096454;28;20191;-64
2021/01/27 07:58:50;;;;;;;1.70;0.20;;;2.30;99.90;;;;;;5094187;28;20656;-64
2021/01/27 08:01:31;;;;;;;5.55;4.07;;;2.30;99.90;;;;;;5093497;28;20259;-63
2021/01/27 08:04:12;;;;;;;1.70;0.20;;;2.20;99.90;;;;;;5093027;28;20183;-63
2021/01/27 08:06:50;;;;;;;1.75;0.20;;;2.20;99.90;;;;;;5093296;28;20206;-64
2021/01/27 08:09:35;;;;;;;1.80;0.30;;;2.20;99.90;;;;;;5092875;28;20243;-64
2021/01/27 08:12:16;;;;;;;1.77;0.30;;;2.20;99.90;;;;;;5092670;28;20260;-64
2021/01/27 08:15:08;;;;;;;1.70;0.20;;;2.20;99.90;;;;;;5092631;28;20295;-64
2021/01/27 08:17:53;;;;;;;1.77;0.20;;;2.20;99.90;;;;;;5094308;28;20188;-63
2021/01/27 08:20:19;;;;;;;1.70;0.20;;;2.20;99.90;;;;;;5092781;28;20380;-63
2021/01/27 08:22:50;;;;;;;3.80;1.80;;;2.30;99.90;;;;;;5092486;28;20710;-63
2021/01/27 08:25:47;;;;;;;3.25;0.95;;;2.20;99.90;;;;;;5093206;28;20214;-63
2021/01/27 08:28:16;;;;;;;1.75;0.30;;;2.20;99.90;;;;;;5092252;28;20195;-63
2021/01/27 08:30:42;;;;;;;1.70;0.20;;;2.20;99.90;;;;;;5092682;28;20264;-64
2021/01/27 08:33:38;;;;;;;1.70;0.20;;;2.20;99.90;;;;;;5093136;28;20255;-64
2021/01/27 08:36:07;;;;;;;1.77;0.30;;;2.30;99.90;;;;;;5092220;28;20563;-63
2021/01/27 08:38:34;;;;;;;1.70;0.20;;;2.30;99.90;;;;;;5089785;28;20243;-64
2021/01/27 08:41:01;;;;;;;1.70;0.20;;;2.30;99.90;;;;;;5091776;28;20184;-63
2021/01/27 08:43:34;;;;;;;1.73;0.20;;;2.30;99.90;;;;;;5093081;28;20261;-64
2021/01/27 08:46:26;;;;;;;1.73;0.20;;;2.30;99.90;;;;;;5092823;28;20184;-63
2021/01/27 08:48:52;;;;;;;2.45;0.75;;;2.30;99.90;;;;;;5091575;28;20232;-64
2021/01/27 08:51:48;;;;;;;1.70;0.20;;;2.30;99.90;;;;;;5092228;28;20295;-64
2021/01/27 08:54:45;;;;;;;1.80;0.20;;;2.40;99.90;;;;;;5092472;28;20183;-63
2021/01/27 08:57:40;;;;;;;1.77;0.20;;;2.40;99.90;;;;;;5090334;28;20180;-64
2021/01/27 09:00:33;;;;;;;2.80;1.05;;;2.40;99.90;;;;;;5091878;28;20618;-63
2021/01/27 09:03:00;;;;;;;1.77;0.32;;;2.40;99.90;;;;;;5091706;28;20583;-64
2021/01/27 09:05:26;;;;;;;1.73;0.20;;;2.40;99.90;;;;;;5090548;28;20218;-63
2021/01/27 09:07:54;;;;;;;1.80;0.30;;;2.30;99.90;;;;;;5089888;28;20216;-63
2021/01/27 09:10:27;;;;;;;2.10;0.77;;;2.40;99.90;;;;;;5091811;28;20670;-64
2021/01/27 09:12:52;;;;;;;1.70;0.20;;;2.30;99.90;;;;;;5091576;28;20180;-65
2021/01/27 09:15:29;;;;;;;2.03;0.70;;;2.30;99.90;;;;;;5088552;28;20187;-64
2021/01/27 09:17:56;;;;;;;1.73;0.20;;;2.30;99.90;;;;;;5092315;28;20200;-62
2021/01/27 09:20:24;;;;;;;2.08;0.93;;;2.40;99.90;;;;;;5074034;28;20597;-64
2021/01/27 09:23:00;;;;;;;1.80;0.30;;;2.40;99.90;;;;;;5095077;28;20271;-66
2021/01/27 09:25:26;;;;;;;1.80;0.30;;;2.30;99.90;;;;;;5099221;28;20191;-65
2021/01/27 09:28:04;;;;;;;1.70;0.20;;;2.30;99.90;;;;;;5090428;28;20229;-65
2021/01/27 09:30:30;;;;;;;1.73;0.20;;;2.20;99.90;;;;;;5083085;28;20705;-66
2021/01/27 09:33:12;;;;;;;1.70;0.20;;;2.10;99.90;;;;;;5092341;28;20192;-65
2021/01/27 09:35:38;;;;;;;2.47;0.98;;;2.10;99.90;;;;;;5090016;28;20807;-65
2021/01/27 09:38:09;;;;;;;1.75;0.20;;;2.10;99.90;;;;;;5090976;28;20305;-66
2021/01/27 09:40:40;;;;;;;7.65;2.15;;;2.20;99.90;;;;;;5091039;28;20207;-65
2021/01/27 09:43:12;;;;;;;1.85;0.45;;;2.20;99.90;;;;;;5092512;28;20192;-65
2021/01/27 09:45:41;;;;;;;1.80;0.20;;;2.10;99.90;;;;;;5084878;28;20240;-66
2021/01/27 09:48:10;;;;;;;1.90;0.32;;;2.00;99.90;;;;;;5088874;28;20208;-66
2021/01/27 09:50:38;;;;;;;3.20;1.17;;;2.00;99.90;;;;;;5092837;28;20217;-67
2021/01/27 09:53:05;;;;;;;1.77;0.20;;;2.00;99.90;;;;;;5087218;28;20251;-67
2021/01/27 09:55:31;;;;;;;7.10;2.67;;;2.00;99.90;;;;;;5091596;28;20230;-66
2021/01/27 09:58:02;;;;;;;2.03;0.50;;;1.90;99.90;;;;;;5089379;28;20639;-66
2021/01/27 10:00:34;;;;;;;1.73;0.20;;;1.90;99.90;;;;;;5090673;28;20255;-66
2021/01/27 10:03:21;;;;;;;1.90;0.50;;;1.90;99.90;;;;;;5094114;28;20217;-66
2021/01/27 10:05:47;;;;;;;1.70;0.20;;;1.90;99.90;;;;;;5091415;28;20629;-68
2021/01/27 10:08:37;;;;;;;2.30;0.70;;;2.00;99.90;;;;;;5110301;28;20188;-66
2021/01/27 10:11:30;;;;;;;1.73;0.20;;;2.00;99.90;;;;;;5108956;28;20469;-66
2021/01/27 10:14:02;;;;;;;1.73;0.20;;;2.10;99.90;;;;;;5117922;28;20174;-67
2021/01/27 10:16:28;;;;;;;2.28;0.70;;;2.20;99.90;;;;;;5109570;28;20226;-70
2021/01/27 10:19:05;;;;;;;2.00;0.60;;;2.20;99.90;;;;;;5109435;28;20294;-65
2021/01/27 10:21:31;;;;;;;3.78;0.40;;;2.10;99.90;;;;;;5106687;28;20408;-66
2021/01/27 10:23:57;;;;;;;3.00;0.93;;;2.10;99.90;;;;;;5103805;28;20191;-67
2021/01/27 10:26:24;;;;;;;1.70;0.20;;;2.10;99.90;;;;;;5094515;28;20416;-66
2021/01/27 10:29:16;;;;;;;2.08;0.75;;;2.10;99.90;;;;;;5098173;28;20205;-66
2021/01/27 10:31:43;;;;;;;2.65;1.10;;;2.20;99.90;;;;;;5096300;28;20200;-69
2021/01/27 10:34:09;;;;;;;1.70;0.20;;;2.20;99.90;;;;;;5104317;28;20213;-70
2021/01/27 10:36:40;;;;;;;1.70;0.20;;;2.30;99.90;;;;;;5111981;28;20207;-68
2021/01/27 10:39:25;;;;;;;2.00;0.40;;;2.30;99.90;;;;;;5105858;28;20200;-67
2021/01/27 10:42:14;;;;;;;3.25;1.15;;;2.40;99.90;;;;;;5115309;22;20216;-61
2021/01/27 10:44:41;;;;;;;2.80;1.38;;;2.50;99.90;;;;;;5073015;28;20283;-61
2021/01/27 10:47:10;;;;;;;1.98;0.60;;;2.30;99.90;;;;;;5072867;28;20176;-60
2021/01/27 10:49:42;;;;;;;1.70;0.20;;;2.30;99.90;;;;;;5076323;28;20254;-60
2021/01/27 10:52:20;;;;;;;1.80;0.30;;;2.40;99.90;;;;;;5073483;28;20272;-60
2021/01/27 10:54:46;;;;;;;2.40;1.25;;;2.40;99.90;;;;;;5075419;28;20184;-60
2021/01/27 10:57:17;;;;;;;2.10;0.60;;;2.30;99.90;;;;;;5073344;28;20189;-59
2021/01/27 10:59:43;;;;;;;2.20;0.70;;;2.30;99.90;;;;;;5072899;28;20770;-60
2021/01/27 11:02:08;;;;;;;2.07;0.60;;;2.30;99.90;;;;;;5082633;28;20218;-60
2021/01/27 11:04:34;;;;;;;1.80;0.30;;;2.30;99.90;;;;;;5075291;28;20240;-61
2021/01/27 11:06:59;;;;;;;20.37;1.20;;;2.30;99.90;;;;;;5079177;28;20248;-60
2021/01/27 11:09:25;;;;;;;1.70;0.20;;;2.30;99.90;;;;;;5074080;28;20267;-60
2021/01/27 11:11:52;;;;;;;2.40;0.90;;;2.30;99.90;;;;;;5081005;28;20208;-61
2021/01/27 11:14:19;;;;;;;2.60;1.23;;;2.30;99.90;;;;;;5070880;28;20193;-61
2021/01/27 11:16:45;;;;;;;1.90;0.40;;;2.20;99.90;;;;;;5070818;28;20176;-61
2021/01/27 11:19:11;;;;;;;1.90;0.47;;;2.20;99.90;;;;;;5077998;28;20187;-61
2021/01/27 11:21:36;;;;;;;2.77;1.07;;;2.20;99.90;;;;;;5072735;28;20201;-62
2021/01/27 11:24:04;;;;;;;1.80;0.30;;;2.20;99.90;;;;;;5072702;28;20272;-61
2021/01/27 11:26:29;;;;;;;2.00;0.82;;;2.30;99.90;;;;;;5062412;28;20307;-61
2021/01/27 11:28:55;;;;;;;2.67;1.50;;;2.40;99.90;;;;;;5075142;28;20271;-61
2021/01/27 11:31:20;;;;;;;2.50;1.07;;;2.40;99.90;;;;;;5074493;28;20216;-61
2021/01/27 11:33:46;;;;;;;2.47;1.07;;;2.40;99.90;;;;;;5075306;28;20169;-61
2021/01/27 11:36:17;;;;;;;3.27;1.87;;;2.30;99.90;;;;;;5074096;28;20199;-61
2021/01/27 11:38:44;;;;;;;3.70;1.55;;;2.30;99.90;;;;;;5075310;28;20241;-60
2021/01/27 11:41:09;;;;;;;2.60;0.70;;;2.20;99.90;;;;;;5078765;28;20219;-60
2021/01/27 11:43:37;;;;;;;1.77;0.20;;;2.20;99.90;;;;;;5079401;28;20189;-60
2021/01/27 11:46:02;;;;;;;2.10;0.68;;;2.30;99.90;;;;;;5080067;28;20191;-60
2021/01/27 11:48:28;;;;;;;2.00;0.70;;;2.30;99.90;;;;;;5083540;28;20200;-61
2021/01/27 11:50:53;;;;;;;2.03;0.70;;;2.20;99.90;;;;;;5078646;28;20207;-60
2021/01/27 11:53:19;;;;;;;4.17;2.37;;;2.30;99.90;;;;;;5077033;28;20210;-61
2021/01/27 11:55:44;;;;;;;1.70;0.20;;;2.30;99.90;;;;;;5076530;28;20255;-61
2021/01/27 11:58:10;;;;;;;1.70;0.20;;;2.30;99.90;;;;;;5057862;28;20215;-62
2021/01/27 12:00:36;;;;;;;2.10;0.67;;;2.30;99.90;;;;;;5076423;28;20180;-61
2021/01/27 12:03:02;;;;;;;1.70;0.20;;;2.20;99.90;;;;;;5076962;28;20903;-62
2021/01/27 12:05:28;;;;;;;1.73;0.20;;;2.20;99.90;;;;;;5073168;28;20216;-62
2021/01/27 12:07:57;;;;;;;3.43;1.27;;;2.20;99.90;;;;;;5075324;28;20200;-61
2021/01/27 12:10:24;;;;;;;1.70;0.20;;;2.20;99.90;;;;;;5076241;28;20211;-61
2021/01/27 12:12:50;;;;;;;1.75;0.20;;;2.20;99.90;;;;;;5071942;28;20200;-61
2021/01/27 12:15:16;;;;;;;1.75;0.20;;;2.20;99.90;;;;;;5077762;28;20192;-68
2021/01/27 12:17:42;;;;;;;1.70;0.20;;;2.20;99.90;;;;;;5089907;28;20177;-62
2021/01/27 12:20:09;;;;;;;2.13;0.73;;;2.30;99.90;;;;;;5093389;28;20406;-62
2021/01/27 12:22:41;;;;;;;1.70;0.20;;;2.30;99.90;;;;;;5094141;28;20265;-62
2021/01/27 12:25:07;;;;;;;2.85;1.10;;;2.20;99.90;;;;;;5086362;28;20177;-62
2021/01/27 12:27:33;;;;;;;7.78;2.40;;;2.20;99.90;;;;;;5090118;28;20181;-61
2021/01/27 12:29:59;;;;;;;1.75;0.20;;;2.20;99.90;;;;;;5088180;28;20252;-61
2021/01/27 12:32:24;;;;;;;1.70;0.20;;;2.30;99.90;;;;;;5076027;28;20232;-62
2021/01/27 12:34:50;;;;;;;3.33;2.10;;;2.30;99.90;;;;;;5075848;28;20196;-62
2021/01/27 12:37:15;;;;;;;2.57;1.27;;;2.30;99.90;;;;;;5077823;28;20192;-62
2021/01/27 12:39:41;;;;;;;3.37;2.20;;;2.20;99.90;;;;;;5073625;28;20263;-62
2021/01/27 12:42:06;;;;;;;2.60;1.47;;;2.20;99.90;;;;;;5077383;28;20200;-61
2021/01/27 12:44:33;;;;;;;2.90;1.80;;;2.20;99.90;;;;;;5076019;28;20193;-62
2021/01/27 12:46:59;;;;;;;2.80;1.30;;;2.30;99.90;;;;;;5073475;28;20736;-62
2021/01/27 12:49:25;;;;;;;1.90;0.57;;;2.30;99.90;;;;;;5073597;28;20216;-63
2021/01/27 12:51:50;;;;;;;2.73;0.67;;;2.40;99.90;;;;;;5069420;28;20240;-61
2021/01/27 12:54:16;;;;;;;1.70;0.20;;;2.30;99.90;;;;;;5071595;28;20554;-62
2021/01/27 12:56:42;;;;;;;1.90;0.40;;;2.30;99.90;;;;;;5073956;28;20196;-63
2021/01/27 12:59:07;;;;;;;1.70;0.20;;;2.40;99.90;;;;;;5070504;28;20176;-62
2021/01/27 13:01:34;;;;;;;2.77;1.13;;;2.30;99.90;;;;;;5075391;28;20228;-62
2021/01/27 13:03:59;;;;;;;3.92;2.33;;;2.20;99.90;;;;;;5080455;28;20210;-61
2021/01/27 13:06:25;;;;;;;2.93;1.50;;;2.20;99.90;;;;;;5069824;28;20189;-61
2021/01/27 13:08:51;;;;;;;4.80;3.13;;;2.20;99.90;;;;;;5073452;28;20184;-62
2021/01/27 13:11:17;;;;;;;2.70;1.00;;;2.10;99.90;;;;;;5077072;28;20683;-61
2021/01/27 13:13:42;;;;;;;4.20;3.30;;;2.20;99.90;;;;;;5074642;28;20185;-62
2021/01/27 13:16:08;;;;;;;3.80;2.20;;;2.20;99.90;;;;;;5082283;28;20287;-62
2021/01/27 13:18:33;;;;;;;1.77;0.20;;;2.20;99.90;;;;;;5085183;28;20187;-61
2021/01/27 13:21:01;;;;;;;2.87;1.53;;;2.30;99.90;;;;;;5075575;28;20209;-61
2021/01/27 13:23:26;;;;;;;4.40;2.15;;;2.30;99.90;;;;;;5077755;28;20181;-62
2021/01/27 13:25:52;;;;;;;2.53;1.30;;;2.30;99.90;;;;;;5076749;28;21092;-61
2021/01/27 13:28:17;;;;;;;1.70;0.20;;;2.40;99.90;;;;;;5071858;28;20180;-62